createdAt,value
2022-11-28T00:01:17.357Z,77.43
2022-11-28T00:03:50.680Z,77.45
2022-11-28T00:06:24.613Z,77.41
2022-11-28T00:09:00.335Z,77.54
2022-11-28T00:11:33.760Z,77.79
2022-11-28T00:14:07.020Z,77.87
2022-11-28T00:16:40.866Z,77.89
2022-11-28T00:19:15.094Z,78.07
2022-11-28T00:21:48.672Z,78.05
2022-11-28T00:24:22.464Z,77.99
2022-11-28T00:26:55.931Z,78.08
2022-11-28T00:29:29.467Z,78.07
2022-11-28T00:32:03.568Z,78.14
2022-11-28T00:34:36.981Z,78.18
2022-11-28T00:37:10.665Z,78.04
2022-11-28T00:39:43.970Z,78.18
2022-11-28T00:42:19.168Z,78.24
2022-11-28T00:44:52.969Z,78.27
2022-11-28T00:47:26.412Z,78.24
2022-11-28T00:49:59.993Z,78.36
2022-11-28T00:52:35.886Z,78.17
2022-11-28T00:55:10.631Z,78.23
2022-11-28T00:57:44.213Z,78.30
2022-11-28T01:00:19.637Z,78.25
2022-11-28T01:02:53.218Z,78.32
2022-11-28T01:05:27.307Z,78.27
2022-11-28T01:08:01.002Z,78.11
2022-11-28T01:10:34.816Z,78.09
2022-11-28T01:13:08.473Z,77.96
2022-11-28T01:15:44.242Z,77.83
2022-11-28T01:18:17.626Z,77.83
2022-11-28T01:20:50.715Z,77.80
2022-11-28T01:23:24.111Z,77.99
2022-11-28T01:25:57.603Z,78.07
2022-11-28T01:28:31.247Z,78.03
2022-11-28T01:31:08.795Z,77.78
2022-11-28T01:33:42.410Z,78.15
2022-11-28T01:36:17.995Z,78.20
2022-11-28T01:38:52.048Z,78.38
2022-11-28T01:41:28.083Z,78.32
2022-11-28T01:44:07.312Z,78.42
2022-11-28T01:46:40.851Z,78.64
2022-11-28T01:49:17.462Z,78.66
2022-11-28T01:51:53.334Z,78.58
2022-11-28T01:54:28.517Z,78.71
2022-11-28T01:57:04.690Z,78.65
2022-11-28T01:59:40.833Z,78.63
2022-11-28T02:02:17.136Z,78.83
2022-11-28T02:04:51.763Z,78.73
2022-11-28T02:07:25.191Z,78.71
2022-11-28T02:09:59.062Z,78.75
2022-11-28T02:12:58.520Z,78.81
2022-11-28T02:18:29.447Z,78.44
2022-11-28T02:21:18.569Z,78.37
2022-11-28T02:24:27.096Z,77.98
2022-11-28T02:27:24.628Z,78.02
2022-11-28T02:30:16.217Z,78.09
2022-11-28T02:33:15.909Z,78.12
2022-11-28T02:35:58.035Z,78.11
2022-11-28T02:38:42.665Z,78.47
2022-11-28T02:41:22.186Z,78.51
2022-11-28T02:44:04.051Z,78.31
2022-11-28T02:46:38.815Z,78.51
2022-11-28T02:49:15.213Z,78.44
2022-11-28T02:51:52.297Z,78.44
2022-11-28T02:54:27.821Z,78.45
2022-11-28T02:57:03.217Z,78.82
2022-11-28T02:59:47.946Z,79.17
2022-11-28T03:02:24.107Z,79.25
2022-11-28T03:05:01.881Z,79.01
2022-11-28T03:07:38.743Z,78.97
2022-11-28T03:10:22.712Z,79.05
2022-11-28T03:13:00.052Z,78.93
2022-11-28T03:15:36.686Z,78.87
2022-11-28T03:18:13.609Z,78.75
2022-11-28T03:20:49.948Z,78.94
2022-11-28T03:23:25.693Z,78.82
2022-11-28T03:26:02.369Z,78.84
2022-11-28T03:28:43.396Z,78.75
2022-11-28T03:31:16.922Z,78.76
2022-11-28T03:33:53.247Z,78.56
2022-11-28T03:36:29.178Z,78.16
2022-11-28T03:39:05.362Z,78.01
2022-11-28T03:41:41.463Z,78.01
2022-11-28T03:44:17.751Z,77.89
2022-11-28T03:46:53.276Z,77.70
2022-11-28T03:49:29.518Z,77.85
2022-11-28T03:52:05.740Z,78.10
2022-11-28T03:54:43.901Z,77.99
2022-11-28T03:57:20.760Z,78.10
2022-11-28T03:59:55.933Z,78.22
2022-11-28T04:02:32.371Z,78.20
2022-11-28T04:05:08.233Z,78.12
2022-11-28T04:07:44.379Z,77.89
2022-11-28T04:10:21.685Z,77.82
2022-11-28T04:13:00.360Z,77.79
2022-11-28T04:15:37.457Z,78.02
2022-11-28T04:18:15.233Z,77.96
2022-11-28T04:20:52.988Z,77.78
2022-11-28T04:23:28.253Z,77.84
2022-11-28T04:26:04.502Z,77.71
2022-11-28T04:28:40.861Z,77.78
2022-11-28T04:31:14.438Z,77.82
2022-11-28T04:33:50.916Z,78.02
2022-11-28T04:36:26.791Z,77.93
2022-11-28T04:39:02.091Z,77.79
2022-11-28T04:41:37.751Z,78.00
2022-11-28T04:44:15.417Z,78.10
2022-11-28T04:46:52.049Z,78.14
2022-11-28T04:49:28.172Z,77.98
2022-11-28T04:52:05.162Z,77.74
2022-11-28T04:54:45.595Z,77.64
2022-11-28T04:57:21.874Z,77.71
2022-11-28T04:59:56.871Z,77.84
2022-11-28T05:02:31.024Z,77.58
2022-11-28T05:05:06.124Z,77.89
2022-11-28T05:07:39.549Z,77.94
2022-11-28T05:10:15.097Z,77.67
2022-11-28T05:12:48.620Z,77.87
2022-11-28T05:15:22.383Z,77.88
2022-11-28T05:17:55.938Z,77.91
2022-11-28T05:20:29.872Z,77.71
2022-11-28T05:23:03.460Z,77.67
2022-11-28T05:25:38.916Z,77.68
2022-11-28T05:28:12.233Z,77.76
2022-11-28T05:30:45.300Z,78.04
2022-11-28T05:33:18.826Z,78.08
2022-11-28T05:35:52.320Z,78.18
2022-11-28T05:38:25.888Z,78.29
2022-11-28T05:40:59.692Z,77.86
2022-11-28T05:43:33.558Z,77.97
2022-11-28T05:46:08.588Z,78.07
2022-11-28T05:48:41.950Z,78.16
2022-11-28T05:51:15.535Z,78.36
2022-11-28T05:53:48.948Z,78.33
2022-11-28T05:56:23.890Z,78.19
2022-11-28T05:58:57.521Z,78.32
2022-11-28T06:01:32.465Z,78.17
2022-11-28T06:04:05.815Z,77.86
2022-11-28T06:06:39.419Z,77.72
2022-11-28T06:09:14.209Z,77.95
2022-11-28T06:11:47.570Z,78.05
2022-11-28T06:14:20.968Z,77.85
2022-11-28T06:16:54.624Z,77.89
2022-11-28T06:19:28.895Z,77.73
2022-11-28T06:22:02.091Z,77.58
2022-11-28T06:24:35.444Z,77.72
2022-11-28T06:27:08.591Z,77.87
2022-11-28T06:29:42.216Z,77.94
2022-11-28T06:32:21.684Z,77.96
2022-11-28T06:34:51.518Z,77.83
2022-11-28T06:37:24.755Z,78.17
2022-11-28T06:39:59.296Z,78.16
2022-11-28T06:42:35.697Z,78.00
2022-11-28T06:45:10.984Z,78.13
2022-11-28T06:47:45.795Z,78.28
2022-11-28T06:50:19.608Z,78.12
2022-11-28T06:52:53.459Z,78.01
2022-11-28T06:55:26.656Z,78.17
2022-11-28T06:58:00.404Z,78.01
2022-11-28T07:00:33.754Z,78.10
2022-11-28T07:03:07.569Z,78.08
2022-11-28T07:05:40.989Z,77.75
2022-11-28T07:08:14.872Z,77.82
2022-11-28T07:10:48.439Z,78.13
2022-11-28T07:13:21.988Z,78.18
2022-11-28T07:15:55.529Z,78.20
2022-11-28T07:18:29.139Z,78.12
2022-11-28T07:21:02.939Z,78.00
2022-11-28T07:23:36.042Z,77.98
2022-11-28T07:26:11.821Z,77.92
2022-11-28T07:28:46.842Z,78.15
2022-11-28T07:31:22.607Z,78.02
2022-11-28T07:33:56.391Z,77.68
2022-11-28T07:36:31.395Z,77.79
2022-11-28T07:39:08.455Z,77.81
2022-11-28T07:41:41.957Z,77.86
2022-11-28T07:46:59.064Z,77.75
2022-11-28T07:49:32.846Z,77.69
2022-11-28T07:52:05.935Z,77.35
2022-11-28T07:54:39.419Z,77.45
2022-11-28T07:57:13.519Z,77.47
2022-11-28T07:59:47.161Z,77.60
2022-11-28T08:02:20.971Z,77.45
2022-11-28T08:04:55.520Z,77.40
2022-11-28T08:07:29.188Z,77.46
2022-11-28T08:10:02.798Z,77.66
2022-11-28T08:12:36.413Z,77.55
2022-11-28T08:15:11.382Z,77.27
2022-11-28T08:17:45.054Z,77.35
2022-11-28T08:20:19.072Z,77.47
2022-11-28T08:22:53.036Z,77.33
2022-11-28T08:25:27.180Z,77.41
2022-11-28T08:28:00.414Z,77.34
2022-11-28T08:30:33.581Z,76.95
2022-11-28T08:33:06.962Z,77.02
2022-11-28T08:35:42.814Z,77.01
2022-11-28T08:38:15.962Z,77.20
2022-11-28T08:40:49.139Z,77.21
2022-11-28T08:43:22.352Z,76.70
2022-11-28T08:45:55.810Z,76.63
2022-11-28T08:48:29.597Z,76.95
2022-11-28T08:51:03.100Z,77.14
2022-11-28T08:53:36.847Z,77.15
2022-11-28T08:56:11.448Z,77.03
2022-11-28T08:58:45.053Z,77.10
2022-11-28T09:01:21.402Z,76.86
2022-11-28T09:03:56.011Z,76.79
2022-11-28T09:06:29.670Z,76.81
2022-11-28T09:09:03.067Z,76.72
2022-11-28T09:11:36.555Z,76.55
2022-11-28T09:14:10.672Z,76.74
2022-11-28T09:16:44.933Z,76.78
2022-11-28T09:19:18.475Z,76.96
2022-11-28T09:21:57.477Z,76.87
2022-11-28T09:24:27.355Z,76.61
2022-11-28T09:27:01.072Z,76.11
2022-11-28T09:29:34.823Z,76.31
2022-11-28T09:32:08.870Z,76.55
2022-11-28T09:34:42.617Z,76.49
2022-11-28T09:37:16.141Z,76.34
2022-11-28T09:40:12.007Z,76.21
2022-11-28T09:42:28.662Z,76.01
2022-11-28T09:45:04.690Z,75.95
2022-11-28T09:47:38.537Z,76.06
2022-11-28T09:50:17.768Z,76.17
2022-11-28T09:52:56.159Z,76.22
2022-11-28T09:55:35.640Z,75.75
2022-11-28T09:58:12.911Z,75.68
2022-11-28T10:00:54.078Z,75.69
2022-11-28T10:03:40.064Z,75.40
2022-11-28T10:06:19.291Z,75.17
2022-11-28T10:09:07.075Z,75.11
2022-11-28T10:11:48.353Z,75.26
2022-11-28T10:14:36.729Z,74.81
2022-11-28T10:17:15.632Z,74.36
2022-11-28T10:19:54.620Z,74.52
2022-11-28T10:22:31.695Z,74.45
2022-11-28T10:25:08.398Z,74.61
2022-11-28T10:27:42.572Z,74.59
2022-11-28T10:30:22.838Z,74.63
2022-11-28T10:33:01.704Z,74.35
2022-11-28T10:35:39.590Z,74.21
2022-11-28T10:38:14.687Z,74.16
2022-11-28T10:40:51.627Z,74.15
2022-11-28T10:43:35.191Z,74.39
2022-11-28T10:46:35.820Z,74.05
2022-11-28T10:49:21.074Z,74.48
2022-11-28T10:51:59.962Z,74.29
2022-11-28T10:54:46.189Z,74.40
2022-11-28T10:57:22.784Z,74.87
2022-11-28T11:00:03.265Z,74.85
2022-11-28T11:02:40.692Z,74.81
2022-11-28T11:05:17.282Z,74.84
2022-11-28T11:07:53.701Z,74.73
2022-11-28T11:10:30.517Z,74.82
2022-11-28T11:13:05.406Z,74.76
2022-11-28T11:15:39.654Z,74.86
2022-11-28T11:18:26.488Z,74.74
2022-11-28T11:21:17.098Z,74.54
2022-11-28T11:23:51.629Z,74.36
2022-11-28T11:26:28.625Z,74.21
2022-11-28T11:29:02.444Z,74.26
2022-11-28T11:31:38.306Z,74.28
2022-11-28T11:34:16.299Z,73.96
2022-11-28T11:36:49.816Z,74.04
2022-11-28T11:39:25.795Z,74.14
2022-11-28T11:42:17.758Z,74.35
2022-11-28T11:44:51.389Z,74.31
2022-11-28T11:47:42.371Z,74.34
2022-11-28T11:50:21.954Z,73.84
2022-11-28T11:53:07.248Z,74.02
2022-11-28T11:55:45.379Z,73.75
2022-11-28T11:58:21.689Z,73.80
2022-11-28T12:00:57.825Z,73.93
2022-11-28T12:03:33.981Z,73.45
2022-11-28T12:06:14.693Z,73.65
2022-11-28T12:08:50.737Z,73.50
2022-11-28T12:11:26.705Z,73.34
2022-11-28T12:14:02.166Z,73.44
2022-11-28T12:16:43.181Z,73.43
2022-11-28T12:19:22.998Z,73.35
2022-11-28T12:22:13.246Z,73.31
2022-11-28T12:24:50.629Z,73.46
2022-11-28T12:27:31.046Z,73.32
2022-11-28T12:30:13.359Z,73.63
2022-11-28T12:32:49.870Z,73.68
2022-11-28T12:35:28.031Z,73.48
2022-11-28T12:38:13.021Z,73.39
2022-11-28T12:40:46.349Z,73.43
2022-11-28T12:43:26.703Z,73.70
2022-11-28T12:46:03.509Z,73.40
2022-11-28T12:48:47.496Z,73.33
2022-11-28T12:51:23.098Z,73.67
2022-11-28T12:54:05.918Z,73.79
2022-11-28T12:56:45.741Z,74.01
2022-11-28T12:59:25.383Z,73.97
2022-11-28T13:02:09.477Z,74.20
2022-11-28T13:04:52.860Z,74.33
2022-11-28T13:07:30.473Z,74.16
2022-11-28T13:10:04.234Z,74.19
2022-11-28T13:12:46.655Z,74.38
2022-11-28T13:15:23.233Z,74.39
2022-11-28T13:18:00.601Z,74.42
2022-11-28T13:20:36.547Z,74.67
2022-11-28T13:23:13.370Z,74.99
2022-11-28T13:25:50.079Z,75.04
2022-11-28T13:28:26.485Z,74.66
2022-11-28T13:31:02.520Z,74.95
2022-11-28T13:33:42.103Z,75.05
2022-11-28T13:39:11.803Z,75.39
2022-11-28T13:42:06.373Z,75.32
2022-11-28T13:44:15.766Z,75.33
2022-11-28T13:46:49.698Z,75.54
2022-11-28T13:49:26.159Z,75.40
2022-11-28T13:52:39.255Z,75.65
2022-11-28T13:55:39.211Z,75.73
2022-11-28T13:58:22.433Z,75.72
2022-11-28T14:03:58.960Z,75.53
2022-11-28T14:06:34.519Z,75.46
2022-11-28T14:09:10.644Z,75.14
2022-11-28T14:11:54.563Z,75.35
2022-11-28T14:17:54.672Z,75.47
2022-11-28T14:20:31.208Z,75.47
2022-11-28T14:23:13.542Z,75.81
2022-11-28T14:25:49.213Z,75.77
2022-11-28T14:28:27.110Z,75.83
2022-11-28T14:31:08.128Z,75.93
2022-11-28T14:33:43.867Z,75.90
2022-11-28T14:36:29.724Z,75.99
2022-11-28T14:39:12.152Z,76.13
2022-11-28T14:42:59.421Z,76.09
2022-11-28T14:45:42.634Z,76.05
2022-11-28T14:48:31.138Z,76.07
2022-11-28T14:51:04.626Z,75.89
2022-11-28T14:53:56.887Z,75.76
2022-11-28T14:56:31.327Z,75.93
2022-11-28T14:59:06.421Z,75.86
2022-11-28T15:01:53.245Z,75.88
2022-11-28T15:04:44.091Z,75.94
2022-11-28T15:07:28.146Z,76.19
2022-11-28T15:10:07.897Z,76.11
2022-11-28T15:12:47.904Z,76.26
2022-11-28T15:15:22.827Z,76.24
2022-11-28T15:17:58.783Z,76.26
2022-11-28T15:20:35.626Z,76.34
2022-11-28T15:23:17.673Z,76.35
2022-11-28T15:25:56.636Z,76.24
2022-11-28T15:28:32.591Z,75.95
2022-11-28T15:31:06.709Z,75.88
2022-11-28T15:33:41.480Z,76.02
2022-11-28T15:36:24.744Z,76.18
2022-11-28T15:38:58.398Z,76.12
2022-11-28T15:41:34.138Z,76.05
2022-11-28T15:44:09.574Z,75.88
2022-11-28T15:46:42.652Z,76.04
2022-11-28T15:49:29.218Z,75.84
2022-11-28T15:52:04.787Z,75.99
2022-11-28T15:54:42.008Z,75.86
2022-11-28T15:57:23.407Z,76.00
2022-11-28T15:59:57.442Z,75.87
2022-11-28T16:02:34.241Z,75.87
2022-11-28T16:05:10.868Z,75.86
2022-11-28T16:07:45.916Z,76.03
2022-11-28T16:10:26.941Z,75.98
2022-11-28T16:13:03.058Z,75.82
2022-11-28T16:15:37.096Z,76.06
2022-11-28T16:18:15.361Z,76.12
2022-11-28T16:20:49.482Z,75.71
2022-11-28T16:23:26.018Z,75.84
2022-11-28T16:26:03.981Z,75.49
2022-11-28T16:28:39.699Z,75.23
2022-11-28T16:31:21.689Z,75.72
2022-11-28T16:33:55.229Z,75.99
2022-11-28T16:36:34.539Z,75.95
2022-11-28T16:39:12.504Z,75.98
2022-11-28T16:41:50.435Z,76.17
2022-11-28T16:44:25.357Z,76.12
2022-11-28T16:46:59.802Z,76.13
2022-11-28T16:49:37.895Z,76.38
2022-11-28T16:52:46.405Z,76.46
2022-11-28T16:55:41.390Z,76.22
2022-11-28T16:58:17.621Z,76.00
2022-11-28T17:01:00.539Z,76.36
2022-11-28T17:03:52.517Z,76.58
2022-11-28T17:06:29.982Z,76.37
2022-11-28T17:09:03.876Z,76.36
2022-11-28T17:11:39.245Z,76.54
2022-11-28T17:14:14.158Z,76.52
2022-11-28T17:16:47.849Z,76.56
2022-11-28T17:19:21.493Z,76.34
2022-11-28T17:21:56.265Z,76.38
2022-11-28T17:24:31.560Z,76.25
2022-11-28T17:27:07.768Z,76.22
2022-11-28T17:29:42.146Z,75.99
2022-11-28T17:32:16.789Z,75.85
2022-11-28T17:34:50.804Z,75.87
2022-11-28T17:37:24.311Z,75.98
2022-11-28T17:40:35.075Z,76.16
2022-11-28T17:45:50.894Z,76.18
2022-11-28T17:48:25.160Z,76.28
2022-11-28T17:50:59.473Z,76.23
2022-11-28T17:53:32.899Z,76.00
2022-11-28T17:56:06.971Z,76.06
2022-11-28T17:58:40.320Z,76.14
2022-11-28T18:01:15.554Z,76.03
2022-11-28T18:03:49.091Z,76.01
2022-11-28T18:06:24.648Z,76.08
2022-11-28T18:09:00.534Z,76.08
2022-11-28T18:11:36.046Z,76.10
2022-11-28T18:14:13.191Z,76.19
2022-11-28T18:16:47.061Z,76.14
2022-11-28T18:19:23.509Z,76.22
2022-11-28T18:21:57.112Z,76.16
2022-11-28T18:24:30.845Z,76.27
2022-11-28T18:27:04.486Z,76.35
2022-11-28T18:29:37.515Z,76.33
2022-11-28T18:32:10.894Z,76.28
2022-11-28T18:34:44.525Z,76.37
2022-11-28T18:37:18.377Z,76.30
2022-11-28T18:39:52.420Z,76.30
2022-11-28T18:42:26.192Z,76.27
2022-11-28T18:44:59.726Z,76.33
2022-11-28T18:47:36.286Z,76.50
2022-11-28T18:50:14.321Z,76.70
2022-11-28T18:52:51.753Z,76.73
2022-11-28T18:55:26.320Z,76.68
2022-11-28T18:58:00.004Z,76.64
2022-11-28T19:00:33.058Z,76.88
2022-11-28T19:03:07.079Z,77.02
2022-11-28T19:05:45.393Z,76.97
2022-11-28T19:08:18.874Z,76.86
2022-11-28T19:10:52.679Z,76.78
2022-11-28T19:13:26.188Z,77.05
2022-11-28T19:15:59.743Z,77.23
2022-11-28T19:18:33.275Z,77.24
2022-11-28T19:21:10.635Z,77.16
2022-11-28T19:23:44.353Z,76.89
2022-11-28T19:26:19.887Z,76.83
2022-11-28T19:28:53.497Z,76.79
2022-11-28T19:31:28.824Z,76.85
2022-11-28T19:34:04.115Z,76.84
2022-11-28T19:36:40.838Z,77.06
2022-11-28T19:39:17.894Z,76.92
2022-11-28T19:41:52.953Z,76.58
2022-11-28T19:44:28.296Z,76.72
2022-11-28T19:47:02.267Z,76.87
2022-11-28T19:49:35.720Z,77.08
2022-11-28T19:52:09.355Z,76.88
2022-11-28T19:54:43.023Z,76.74
2022-11-28T19:57:16.508Z,76.83
2022-11-28T19:59:50.072Z,76.79
2022-11-28T20:02:26.433Z,76.50
2022-11-28T20:04:59.900Z,76.47
2022-11-28T20:07:34.784Z,76.47
2022-11-28T20:10:10.707Z,76.55
2022-11-28T20:12:43.834Z,76.64
2022-11-28T20:15:18.433Z,76.64
2022-11-28T20:17:53.965Z,76.57
2022-11-28T20:20:27.383Z,76.46
2022-11-28T20:23:01.599Z,76.16
2022-11-28T20:25:36.577Z,76.36
2022-11-28T20:28:10.036Z,76.29
2022-11-28T20:30:43.822Z,76.44
2022-11-28T20:33:17.438Z,76.58
2022-11-28T20:35:56.962Z,76.54
2022-11-28T20:38:28.121Z,76.61
2022-11-28T20:41:03.482Z,76.63
2022-11-28T20:43:38.554Z,76.43
2022-11-28T20:46:14.359Z,76.42
2022-11-28T20:48:47.898Z,76.15
2022-11-28T20:51:24.992Z,76.25
2022-11-28T20:53:59.763Z,76.28
2022-11-28T20:56:51.950Z,76.48
2022-11-28T20:59:12.822Z,76.37
2022-11-28T21:01:46.382Z,76.48
2022-11-28T21:04:20.421Z,76.54
2022-11-28T21:06:54.996Z,76.52
2022-11-28T21:09:28.542Z,76.52
2022-11-28T21:12:01.897Z,76.41
2022-11-28T21:14:35.353Z,76.26
2022-11-28T21:17:09.025Z,76.33
2022-11-28T21:19:42.917Z,76.36
2022-11-28T21:22:16.552Z,76.30
2022-11-28T21:24:51.459Z,76.38
2022-11-28T21:27:25.015Z,76.48
2022-11-28T21:29:58.681Z,76.51
2022-11-28T21:32:33.726Z,76.69
2022-11-28T21:35:08.662Z,76.72
2022-11-28T21:37:42.201Z,76.85
2022-11-28T21:40:16.916Z,76.81
2022-11-28T21:42:50.295Z,76.97
2022-11-28T21:45:23.996Z,77.19
2022-11-28T21:47:58.054Z,77.25
2022-11-28T21:50:31.596Z,77.35
2022-11-28T21:53:04.940Z,77.42
2022-11-28T21:55:39.516Z,77.48
2022-11-28T21:58:13.743Z,77.54
2022-11-28T22:00:53.696Z,77.41
2022-11-28T22:03:22.381Z,77.24
2022-11-28T22:06:02.294Z,77.43
2022-11-28T22:08:36.756Z,77.68
2022-11-28T22:11:12.943Z,77.92
2022-11-28T22:13:46.836Z,77.94
2022-11-28T22:16:22.962Z,77.68
2022-11-28T22:18:58.370Z,77.57
2022-11-28T22:24:09.513Z,77.61
2022-11-28T22:26:43.520Z,77.42
2022-11-28T22:29:17.589Z,77.37
2022-11-28T22:31:51.665Z,77.43
2022-11-28T22:34:24.890Z,77.64
2022-11-28T22:36:58.765Z,77.75
2022-11-28T22:39:32.514Z,77.60
2022-11-28T22:42:06.702Z,77.61
2022-11-28T22:44:40.378Z,77.56
2022-11-28T22:47:13.733Z,77.71
2022-11-28T22:49:47.369Z,77.64
2022-11-28T22:52:20.830Z,77.59
2022-11-28T22:54:54.646Z,77.51
2022-11-28T22:57:28.028Z,77.70
2022-11-28T23:00:01.647Z,77.25
2022-11-28T23:02:35.775Z,77.51
2022-11-28T23:05:10.516Z,77.83
2022-11-28T23:07:44.043Z,78.00
2022-11-28T23:10:19.138Z,77.96
2022-11-28T23:12:53.654Z,77.81
2022-11-28T23:15:27.403Z,77.85
2022-11-28T23:18:01.408Z,77.67
2022-11-28T23:20:34.783Z,77.71
2022-11-28T23:23:09.167Z,77.79
2022-11-28T23:25:42.567Z,77.52
2022-11-28T23:28:16.064Z,77.73
2022-11-28T23:30:49.467Z,77.72
2022-11-28T23:33:23.113Z,77.73
2022-11-28T23:35:59.768Z,77.64
2022-11-28T23:38:33.496Z,77.81
2022-11-28T23:41:06.823Z,77.83
2022-11-28T23:43:40.710Z,77.91
2022-11-28T23:46:15.359Z,77.75
2022-11-28T23:48:48.987Z,77.52
2022-11-28T23:51:24.054Z,77.47
2022-11-28T23:53:57.427Z,77.40
2022-11-28T23:56:31.846Z,77.30
2022-11-28T23:59:06.976Z,77.42
